Nearby METAR Reports

 

LIBG - Grottaglie(Civ/A, Italy
Distance from station: NO 13km
aktuell: 16/04/2021 19:50
NOT Current
Few Clouds
Few Clouds
 Wind von N
Wind: N 15 km/h
Temperatur: 11°C
Taupunkt: 4°C
Luftfeuchte: 62%
Luftdruck: 1014 hPa
Clouds: Few Clouds
Visibility: 10 km
Cloud details: Few Clouds 1219 m
2021/04/16 17:50 LIBG 161750Z 00008KT 9999 FEW040 11/04 Q1014
LIBH - Marina Di Ginosa, Italy
Distance from station: W 33km
aktuell: 16/04/2021 19:55
NOT Current
klar
klar
 Wind von NNW
Wind: NNW 13 km/h
Temperatur: 12°C
Taupunkt: 8°C
Luftfeuchte: 77%
Luftdruck: 1014 hPa
Zusammenfassung: klar
Visibility: greater than 10 km
2021/04/16 17:55 LIBH 161755Z 33007KT CAVOK 12/08 Q1014
 
LIBV - Gioia Del Colle, Italy
Distance from station: NW 45km
aktuell: 16/04/2021 20:55
sehr leichter Niederschlag, geschlossene Wolkendecke
sehr leichter Niederschlag, geschlossene Wolkendecke
 Wind von NNW
Wind: NNW 19 km/h
Temperatur: 7°C
Wind Chill: 4°C
Taupunkt: 5°C
Luftfeuchte: 87%
Luftdruck: 1014 hPa
Zusammenfassung: sehr leichter Niederschlag
Clouds: geschlossene Wolkendecke
Visibility: 8 km
Cloud details: geschlossene Wolkendecke 1219 m
2021/04/16 18:55 LIBV 161855Z 34010KT 8000 -RA OVC040 07/05 Q1014 RMK OVC VIS MIN 8000 WIND THR32 36010KT WIND THR14 35011KT BLU
LIBR - Brindisi/Casale, Italy
Distance from station: ONO 62km
aktuell: 16/04/2021 21:50
Few Clouds
Few Clouds
 Wind von N
Wind: N 28 km/h
Temperatur: 13°C
Taupunkt: 6°C
Luftfeuchte: 63%
Luftdruck: 1014 hPa
Clouds: Few Clouds
Visibility: 10 km
Cloud details: Few Clouds 610 m
2021/04/16 19:50 LIBR 161950Z 01015KT 9999 FEW020 13/06 Q1014
 
LIBN - Lecce (it-Afb), Italy
Distance from station: OSO 79km
aktuell: 16/04/2021 20:55
teilweise bewölkt
teilweise bewölkt
 Wind von N
Wind: N 22 km/h
Temperatur: 11°C
Taupunkt: 5°C
Luftfeuchte: 67%
Luftdruck: 1013 hPa
Clouds: teilweise bewölkt
Visibility: 10 km
Cloud details: teilweise bewölkt 1219 m
2021/04/16 18:55 LIBN 161855Z 36012KT 9999 SCT040 11/05 Q1013 RMK OVC BKN080 BKN120 VIS MIN 9999 WIND THR14 36012KT WIND THR32 36012KT BLU
LIBD - Bari/Palese Macc, Italy
Distance from station: NNW 85km
aktuell: 16/04/2021 21:50
sehr leichter Niederschlag, Few clouds
sehr leichter Niederschlag, Few clouds
 Wind von SSW
Wind: SSW 11 km/h
Temperatur: 8°C
Wind Chill: 6°C
Taupunkt: 6°C
Luftfeuchte: 87%
Luftdruck: 1016 hPa
Zusammenfassung: sehr leichter Niederschlag
Clouds: Few Clouds
Visibility: 10 km
Cloud details: Few Clouds 1372 m
2021/04/16 19:50 LIBD 161950Z 21006KT 9999 -RA FEW045 08/06 Q1016